sim
Sign-in with your pilot id or email,
or register
Callsign
Passwort

Schedule Details

Flight Number: EWG225
Departure: Port Louis Sir Seewoosagur Ramgoolam Airport (FIMP) at 04:35
Arrival: Munich Airport (EDDM) at 16:30
Route: Eurowings Passenger Schedule. Enter filed route here before submitting Pirep.

Weather Information
Getting current METAR information for FIMP 211800Z 10013KT 9999 SCT018 22/17 Q1022
Getting current METAR information for EDDM 211820Z 10001KT CAVOK 15/13 Q1016 NOSIG

Schedule Frequency

Route Map